Barter Island LRRS Airport Barter Island Lrrs US
ICAO: PABA
IATA:
Category: Medium
Scheduled Services:

Elevation: 2 ft
TransAlt. 18000 ft.

Airport Communications:
AWOS 3:30.8
ANCHORAGE CNTR:120.6
CTAF:126.2
DEADHORSE RDO:122
RDO:126.2

PABA Zoom In..

If Map Doesn't Load, Click Here

Runways:

(A) RW 07 length 4818 ft width 100 ft
---- / hdg 66

(B) RW 25 length 4818 ft width 100 ft
---- / hdg 246

Location; PABA
Day. 24 / Time. 05.52 Zulu
* Altimeter: 29.96
* Temperature: -02° c. -28.4°f.
* Wind from: 070° Speed 03 kn.
Dewpoint: -02° c.
Visibility: 9 Statute Miles.
Clouds: Few 400 ft.
Clouds: Scattered 3000 ft.
Clouds: Overcast 4400 ft.
Conditions: Light Snow.

PABA 240552Z AUTO 07003KT 9SM -SN FEW004 SCT030 OVC044 M02/M02 A2996 RMK AO2 SLP130 P0000 60000 T10171022 11011 21017 51008 FZRANO TSNO


Wind From 070°
Speed 03 kn.

 
 
jpsmedia.com for Web Design worldairports.se 2018   terms of use